Time;durP1;ratioP1;P1;durP2;ratioP2;P2;SDS_P1;SDS_P2;PMS_P1;PMS_P2;Temp;Humidity;BMP_temperature;BMP_pressure;BME280_temperature;BME280_humidity;BME280_pressure;Samples;Min_cycle;Max_cycle;Signal;HPM_P1;HPM_P2
2023/12/18 00:00:53;;;;;;;17.50;5.05;;;;;;;4.40;61.10;102847.22;4882811;28;21155;-67
2023/12/18 00:03:19;;;;;;;14.68;4.78;;;;;;;4.81;59.93;102844.44;4878438;28;20055;-68
2023/12/18 00:05:44;;;;;;;17.63;4.82;;;;;;;5.30;58.62;102852.09;4882551;28;20603;-66
2023/12/18 00:08:12;;;;;;;17.95;5.43;;;;;;;4.84;59.74;102847.97;4875803;28;20065;-65
2023/12/18 00:10:38;;;;;;;19.83;5.43;;;;;;;4.64;60.15;102833.81;4883753;28;20032;-66
2023/12/18 00:13:03;;;;;;;23.42;5.30;;;;;;;5.08;58.90;102831.09;4878097;28;20044;-67
2023/12/18 00:15:29;;;;;;;10.07;4.93;;;;;;;5.13;59.02;102832.00;4884046;28;20048;-68
2023/12/18 00:17:54;;;;;;;13.43;4.75;;;;;;;5.06;59.15;102835.38;4882566;28;20057;-65
2023/12/18 00:20:20;;;;;;;11.52;4.40;;;;;;;5.05;59.27;102834.47;4878543;28;20194;-71
2023/12/18 00:22:45;;;;;;;19.20;5.15;;;;;;;5.07;59.01;102825.88;4881701;28;20036;-71
2023/12/18 00:25:11;;;;;;;19.45;5.35;;;;;;;5.04;59.36;102822.38;4879546;28;20025;-71
2023/12/18 00:27:36;;;;;;;15.30;4.47;;;;;;;5.16;58.88;102831.19;4880877;28;20059;-71
2023/12/18 00:30:02;;;;;;;22.42;4.97;;;;;;;4.93;59.39;102823.09;4884438;28;20206;-71
2023/12/18 00:32:27;;;;;;;19.35;4.47;;;;;;;5.31;58.45;102830.53;4878811;28;20067;-67
2023/12/18 00:34:52;;;;;;;14.57;4.72;;;;;;;5.14;58.88;102833.75;4882876;28;20101;-68
2023/12/18 00:37:18;;;;;;;22.65;4.90;;;;;;;4.96;59.46;102834.34;4878239;28;20048;-67
2023/12/18 00:39:43;;;;;;;12.65;5.05;;;;;;;4.99;59.47;102838.72;4881070;28;20059;-67
2023/12/18 00:42:09;;;;;;;17.83;4.95;;;;;;;4.88;60.29;102827.31;4892819;28;20055;-67
2023/12/18 00:44:34;;;;;;;25.10;5.22;;;;;;;5.06;59.23;102830.19;4881209;28;20124;-67
2023/12/18 00:47:00;;;;;;;10.63;5.20;;;;;;;4.94;59.48;102824.81;4887204;28;20082;-67
2023/12/18 00:49:27;;;;;;;15.82;5.32;;;;;;;4.84;59.81;102822.06;4875220;28;21382;-67
2023/12/18 00:51:54;;;;;;;13.48;4.38;;;;;;;4.80;59.31;102814.22;4883578;28;20398;-67
2023/12/18 00:54:19;;;;;;;18.33;5.20;;;;;;;5.02;59.64;102815.44;4880836;28;20099;-67
2023/12/18 00:56:45;;;;;;;14.52;4.88;;;;;;;4.69;60.85;102814.03;4886031;28;20598;-66
2023/12/18 00:59:12;;;;;;;18.83;4.88;;;;;;;4.62;60.77;102823.44;4881650;28;20442;-67
2023/12/18 01:01:38;;;;;;;23.38;5.38;;;;;;;4.72;60.45;102819.28;4897433;28;20443;-66
2023/12/18 01:04:03;;;;;;;16.63;5.63;;;;;;;4.78;60.04;102805.53;4881448;28;20064;-70
2023/12/18 01:06:29;;;;;;;23.38;5.75;;;;;;;5.28;58.81;102799.34;4876246;28;20035;-70
2023/12/18 01:08:54;;;;;;;13.18;6.05;;;;;;;4.99;59.61;102811.09;4883001;28;20048;-70
2023/12/18 01:11:19;;;;;;;16.73;5.35;;;;;;;4.97;59.91;102806.72;4877225;28;20040;-68
2023/12/18 01:13:45;;;;;;;14.45;5.00;;;;;;;4.96;60.03;102802.38;4896035;28;20625;-68
2023/12/18 01:16:10;;;;;;;14.35;5.70;;;;;;;5.02;59.54;102807.66;4875083;28;20072;-67
2023/12/18 01:18:36;;;;;;;16.77;4.65;;;;;;;4.98;59.78;102811.06;4882134;28;20047;-66
2023/12/18 01:21:04;;;;;;;24.33;5.80;;;;;;;4.66;60.69;102798.47;4882187;28;20083;-69
2023/12/18 01:23:30;;;;;;;13.30;5.38;;;;;;;5.04;59.54;102800.78;4875671;28;20105;-66
2023/12/18 01:25:55;;;;;;;19.70;5.00;;;;;;;5.08;59.18;102802.56;4881047;28;20067;-68
2023/12/18 01:28:20;;;;;;;22.40;4.97;;;;;;;4.85;60.48;102799.59;4887974;28;20415;-68
2023/12/18 01:30:46;;;;;;;12.68;4.45;;;;;;;4.64;60.78;102797.56;4882341;28;20029;-68
2023/12/18 01:33:11;;;;;;;12.50;5.55;;;;;;;4.97;59.61;102793.78;4874557;28;20135;-68
2023/12/18 01:35:37;;;;;;;13.68;4.15;;;;;;;5.03;59.88;102788.66;4882637;28;20032;-69
2023/12/18 01:38:02;;;;;;;11.02;3.90;;;;;;;5.08;59.30;102787.03;4891421;28;20052;-68
2023/12/18 01:40:28;;;;;;;9.43;4.13;;;;;;;4.82;60.16;102784.88;4878215;28;22818;-69
2023/12/18 01:42:53;;;;;;;15.02;4.78;;;;;;;4.55;60.72;102789.66;4881102;28;20047;-69
2023/12/18 01:45:18;;;;;;;11.32;4.63;;;;;;;4.98;59.81;102774.78;4875883;28;20063;-69
2023/12/18 01:47:44;;;;;;;11.43;3.95;;;;;;;5.11;59.42;102779.28;4894953;28;20127;-68
2023/12/18 01:50:10;;;;;;;16.33;4.85;;;;;;;4.96;59.82;102774.75;4886434;28;20063;-70
2023/12/18 01:52:37;;;;;;;14.63;4.70;;;;;;;4.99;60.01;102771.34;4877671;28;20106;-67
2023/12/18 01:55:03;;;;;;;10.65;3.50;;;;;;;4.84;60.47;102775.41;4882188;28;20549;-67
2023/12/18 01:57:30;;;;;;;19.15;3.92;;;;;;;4.94;59.74;102766.06;4892496;28;21761;-69
2023/12/18 01:59:57;;;;;;;19.23;4.25;;;;;;;5.28;59.12;102769.13;4881771;28;20036;-68
2023/12/18 02:02:27;;;;;;;20.33;4.22;;;;;;;4.92;60.45;102764.31;4891158;28;20353;-66
2023/12/18 02:04:52;;;;;;;8.68;3.40;;;;;;;5.31;58.90;102770.88;4879275;28;20037;-69
2023/12/18 02:07:18;;;;;;;13.70;3.50;;;;;;;5.09;59.98;102777.50;4877730;28;20070;-69
2023/12/18 02:09:43;;;;;;;10.70;3.35;;;;;;;5.39;59.08;102782.19;4880761;28;20044;-69
2023/12/18 02:12:09;;;;;;;12.88;3.38;;;;;;;5.12;59.49;102782.72;4883444;28;20040;-68
2023/12/18 02:14:34;;;;;;;9.45;3.65;;;;;;;4.99;59.85;102789.50;4888790;28;20071;-69
2023/12/18 02:16:59;;;;;;;10.88;3.30;;;;;;;5.11;59.67;102775.81;4881324;28;20035;-68
2023/12/18 02:19:29;;;;;;;18.85;3.50;;;;;;;5.20;59.38;102778.53;4875338;28;20040;-68
2023/12/18 02:21:55;;;;;;;14.27;3.50;;;;;;;5.22;59.41;102782.00;4882271;28;20087;-66
2023/12/18 02:24:24;;;;;;;14.75;3.70;;;;;;;5.14;59.83;102784.47;4875413;28;20091;-68
2023/12/18 02:26:49;;;;;;;15.85;4.75;;;;;;;4.95;60.39;102785.09;4881741;28;20047;-68
2023/12/18 02:29:15;;;;;;;22.30;3.58;;;;;;;5.13;59.71;102782.75;4891999;28;20048;-67
2023/12/18 02:31:42;;;;;;;6.60;2.55;;;;;;;4.91;60.43;102779.00;4881566;28;20040;-67
2023/12/18 02:34:07;;;;;;;19.92;3.72;;;;;;;4.97;60.23;102767.88;4898333;28;20511;-68
2023/12/18 02:36:33;;;;;;;12.18;2.67;;;;;;;5.39;58.62;102774.44;4876108;28;20036;-68
2023/12/18 02:38:58;;;;;;;18.65;3.97;;;;;;;5.34;59.17;102761.41;4884420;28;20052;-70
2023/12/18 02:41:26;;;;;;;9.32;3.25;;;;;;;5.23;59.30;102761.31;4878863;28;20016;-69
2023/12/18 02:43:52;;;;;;;13.85;2.58;;;;;;;5.34;58.91;102752.75;4881588;28;20098;-70
2023/12/18 02:46:17;;;;;;;11.07;3.30;;;;;;;5.46;58.96;102746.00;4880941;28;20145;-70
2023/12/18 02:48:42;;;;;;;9.13;3.47;;;;;;;5.36;59.13;102748.47;4883176;28;20067;-71
2023/12/18 02:51:08;;;;;;;20.23;3.13;;;;;;;5.16;59.46;102751.69;4884354;28;20044;-71
2023/12/18 02:53:33;;;;;;;7.82;2.53;;;;;;;5.31;59.01;102757.94;4879843;28;21995;-71
2023/12/18 02:55:59;;;;;;;10.07;2.50;;;;;;;5.24;59.24;102762.16;4882442;28;20071;-71
2023/12/18 02:58:24;;;;;;;11.77;3.05;;;;;;;5.43;58.82;102764.09;4877199;28;20049;-72
2023/12/18 03:00:50;;;;;;;10.73;2.80;;;;;;;5.53;58.33;102759.06;4900554;28;20053;-73
2023/12/18 03:03:41;;;;;;;10.18;2.88;;;;;;;5.25;59.05;102743.16;4880146;28;20070;-75
2023/12/18 03:06:32;;;;;;;29.77;3.22;;;;;;;5.75;57.94;102754.94;4875207;28;20330;-76
2023/12/18 03:08:59;;;;;;;10.80;3.53;;;;;;;5.60;58.27;102748.75;4921370;28;20542;-75
2023/12/18 03:11:25;;;;;;;7.65;2.22;;;;;;;5.53;58.33;102751.28;4881936;28;20072;-76
2023/12/18 03:13:50;;;;;;;8.23;2.72;;;;;;;4.85;60.19;102747.78;4885049;28;20555;-75
2023/12/18 03:16:16;;;;;;;9.40;3.55;;;;;;;5.31;59.10;102750.16;4878927;28;20040;-76
2023/12/18 03:18:41;;;;;;;16.02;4.63;;;;;;;5.28;59.56;102753.56;4859974;28;20083;-76
2023/12/18 03:21:10;;;;;;;8.82;3.40;;;;;;;5.14;59.74;102747.34;4873238;28;20070;-76
2023/12/18 03:23:36;;;;;;;8.15;3.53;;;;;;;5.18;59.22;102741.34;4856243;28;20122;-76
2023/12/18 03:26:02;;;;;;;12.68;4.65;;;;;;;4.74;60.60;102746.75;4876954;28;20039;-76
2023/12/18 03:28:28;;;;;;;8.38;3.40;;;;;;;5.02;60.05;102740.28;4890751;28;20514;-76
2023/12/18 03:30:53;;;;;;;10.25;3.42;;;;;;;5.20;59.26;102735.31;4874585;28;20032;-76
2023/12/18 03:33:19;;;;;;;11.20;3.63;;;;;;;4.88;60.26;102737.50;4849031;28;20048;-74
2023/12/18 03:35:45;;;;;;;14.77;4.07;;;;;;;5.17;59.57;102734.44;4886012;28;20115;-74
2023/12/18 03:38:11;;;;;;;11.25;3.88;;;;;;;5.05;60.15;102733.38;4886255;28;20059;-74
2023/12/18 03:40:37;;;;;;;21.05;4.03;;;;;;;5.00;60.03;102724.69;4877858;28;21413;-75
2023/12/18 03:43:02;;;;;;;11.45;3.30;;;;;;;4.89;60.71;102728.88;4858476;28;20044;-68
2023/12/18 03:45:28;;;;;;;17.30;4.88;;;;;;;5.48;58.96;102732.16;4890359;28;20043;-68
2023/12/18 03:47:53;;;;;;;12.90;4.22;;;;;;;5.08;60.24;102714.44;4865838;28;20244;-67
2023/12/18 03:50:19;;;;;;;13.38;6.25;;;;;;;4.76;60.93;102711.38;4867628;28;20062;-68
2023/12/18 03:52:44;;;;;;;19.38;5.68;;;;;;;5.08;59.91;102718.72;4881566;28;21295;-67
2023/12/18 03:55:10;;;;;;;18.23;7.25;;;;;;;4.95;60.42;102723.78;4882068;28;20041;-68
2023/12/18 03:57:35;;;;;;;16.40;5.82;;;;;;;4.94;60.19;102721.16;4875897;28;20451;-68
2023/12/18 04:00:01;;;;;;;20.48;6.72;;;;;;;4.68;61.52;102719.06;4863998;28;20459;-68
2023/12/18 04:02:26;;;;;;;13.55;6.55;;;;;;;3.90;63.69;102713.53;4878436;28;20328;-66
2023/12/18 04:04:52;;;;;;;18.80;5.95;;;;;;;4.31;62.58;102722.81;4847873;28;20040;-67
2023/12/18 04:07:18;;;;;;;16.48;6.43;;;;;;;4.50;62.23;102719.66;4883088;28;20037;-66
2023/12/18 04:09:44;;;;;;;20.02;6.63;;;;;;;4.50;62.15;102731.72;4875981;28;20126;-67
2023/12/18 04:12:09;;;;;;;17.08;6.82;;;;;;;4.47;61.96;102729.97;4889766;28;20483;-70
2023/12/18 04:14:34;;;;;;;20.10;7.15;;;;;;;4.26;62.85;102719.28;4860035;28;20081;-67
2023/12/18 04:17:00;;;;;;;27.65;7.20;;;;;;;4.82;61.39;102716.66;4882908;28;20032;-67
2023/12/18 04:19:25;;;;;;;10.38;6.57;;;;;;;4.69;61.55;102712.16;4861833;28;20143;-67
2023/12/18 04:21:51;;;;;;;13.50;7.10;;;;;;;4.90;60.77;102709.91;4878345;28;20043;-67
2023/12/18 04:24:16;;;;;;;19.13;6.75;;;;;;;5.05;59.94;102697.09;4886884;28;20144;-67
2023/12/18 04:26:43;;;;;;;18.10;7.57;;;;;;;4.40;62.33;102716.03;4875365;28;20043;-68
2023/12/18 04:29:09;;;;;;;10.98;5.80;;;;;;;4.82;61.12;102709.75;4886524;28;20059;-67
2023/12/18 04:31:34;;;;;;;23.80;7.38;;;;;;;4.48;62.06;102720.50;4890455;28;20184;-67
2023/12/18 04:34:00;;;;;;;16.90;5.80;;;;;;;4.82;61.38;102725.28;4882131;28;20044;-68
2023/12/18 04:36:26;;;;;;;18.77;6.90;;;;;;;4.72;61.39;102730.31;4877672;28;20032;-67
2023/12/18 04:38:51;;;;;;;16.88;6.53;;;;;;;4.56;61.71;102726.63;4880659;28;20044;-68
2023/12/18 04:41:21;;;;;;;16.80;6.95;;;;;;;4.91;61.26;102722.00;4882184;28;20108;-68
2023/12/18 04:43:46;;;;;;;13.02;6.55;;;;;;;4.96;60.99;102719.47;4859758;28;20054;-68
2023/12/18 04:46:12;;;;;;;23.08;8.02;;;;;;;4.98;60.89;102715.16;4922020;28;20039;-69
2023/12/18 04:48:37;;;;;;;23.75;7.03;;;;;;;4.19;62.60;102711.41;4854592;28;20058;-68
2023/12/18 04:51:03;;;;;;;11.93;5.93;;;;;;;4.47;61.70;102703.19;4888524;28;20033;-68
2023/12/18 04:53:30;;;;;;;24.95;7.05;;;;;;;4.45;62.81;102720.44;4876731;28;20446;-69
2023/12/18 04:55:55;;;;;;;18.95;6.38;;;;;;;4.60;62.13;102715.47;4879756;28;20073;-70
2023/12/18 04:58:20;;;;;;;15.75;6.05;;;;;;;4.82;61.51;102727.00;4878712;28;20483;-70
2023/12/18 05:00:46;;;;;;;15.70;6.05;;;;;;;4.86;61.40;102727.94;4875481;28;20056;-68
2023/12/18 05:03:14;;;;;;;15.55;5.68;;;;;;;4.81;61.08;102720.97;4880929;28;20058;-68
2023/12/18 05:05:39;;;;;;;14.30;5.43;;;;;;;4.70;61.90;102732.00;4875777;28;20549;-69
2023/12/18 05:08:05;;;;;;;20.50;6.18;;;;;;;4.66;61.84;102731.13;4856579;28;20032;-69
2023/12/18 05:10:30;;;;;;;19.50;5.97;;;;;;;4.87;60.80;102738.31;4876292;28;20037;-68
2023/12/18 05:12:57;;;;;;;14.27;5.15;;;;;;;4.88;61.39;102740.09;4877159;28;20080;-68
2023/12/18 05:15:24;;;;;;;7.72;4.75;;;;;;;4.85;61.34;102737.41;4882345;28;20090;-68
2023/12/18 05:17:49;;;;;;;13.50;5.47;;;;;;;4.58;62.22;102740.47;4869230;28;20186;-68
2023/12/18 05:20:14;;;;;;;11.95;4.97;;;;;;;5.04;60.62;102738.56;4878516;28;20139;-68
2023/12/18 05:22:40;;;;;;;9.70;4.85;;;;;;;4.84;61.06;102738.28;4875165;28;20050;-72
2023/12/18 05:25:08;;;;;;;19.05;4.47;;;;;;;4.98;60.47;102728.13;4882258;28;20266;-68
2023/12/18 05:27:33;;;;;;;9.15;4.97;;;;;;;5.21;60.01;102726.72;4876030;28;20099;-66
2023/12/18 05:29:59;;;;;;;18.70;6.68;;;;;;;5.28;59.88;102721.56;4859854;28;20048;-70
2023/12/18 05:32:24;;;;;;;15.45;5.38;;;;;;;4.58;61.96;102712.00;4878418;28;20063;-68
2023/12/18 05:34:50;;;;;;;16.08;4.97;;;;;;;4.71;61.75;102721.69;4854500;28;20114;-70
2023/12/18 05:37:16;;;;;;;11.40;5.40;;;;;;;4.97;60.78;102727.25;4865095;28;20032;-68
2023/12/18 05:39:41;;;;;;;29.48;8.25;;;;;;;4.60;61.26;102731.03;4888554;28;20043;-67
2023/12/18 05:42:06;;;;;;;13.10;5.78;;;;;;;4.98;60.67;102734.16;4884385;28;20110;-68
2023/12/18 05:44:32;;;;;;;30.40;6.55;;;;;;;5.28;59.70;102726.75;4865863;28;20130;-67
2023/12/18 05:46:57;;;;;;;15.88;5.35;;;;;;;4.81;61.45;102715.78;4881029;28;20695;-66
2023/12/18 05:49:23;;;;;;;15.15;6.00;;;;;;;4.99;60.90;102714.34;4864381;28;20139;-66
2023/12/18 05:51:49;;;;;;;13.80;6.43;;;;;;;5.12;59.91;102721.38;4878855;28;20031;-65
2023/12/18 05:54:14;;;;;;;13.75;5.80;;;;;;;5.07;60.41;102719.59;4889194;28;20093;-66
2023/12/18 05:56:40;;;;;;;16.50;5.55;;;;;;;5.50;59.27;102720.94;4874816;28;21305;-66
2023/12/18 05:59:05;;;;;;;17.75;6.03;;;;;;;5.29;59.91;102713.81;4879458;28;20503;-66
2023/12/18 06:01:31;;;;;;;18.08;6.07;;;;;;;5.19;59.97;102727.50;4884014;28;20489;-67
2023/12/18 06:03:56;;;;;;;15.43;5.00;;;;;;;5.08;60.25;102717.03;4879054;28;20046;-67
2023/12/18 06:06:21;;;;;;;12.02;6.60;;;;;;;5.30;59.76;102717.28;4881683;28;20036;-68
2023/12/18 06:08:47;;;;;;;26.92;7.22;;;;;;;4.67;61.45;102719.91;4879206;28;20359;-69
2023/12/18 06:11:15;;;;;;;17.88;6.40;;;;;;;4.79;61.01;102720.06;4885553;28;20066;-72
2023/12/18 06:13:41;;;;;;;13.55;6.30;;;;;;;4.90;61.17;102724.56;4863448;28;20047;-68
2023/12/18 06:16:06;;;;;;;14.98;6.07;;;;;;;4.81;62.06;102723.56;4892202;28;20032;-69
2023/12/18 06:18:34;;;;;;;14.57;5.20;;;;;;;4.98;60.62;102718.63;4890280;28;20671;-68
2023/12/18 06:21:04;;;;;;;18.63;5.38;;;;;;;4.87;61.25;102719.31;4899631;28;20059;-66
2023/12/18 06:23:30;;;;;;;18.65;5.47;;;;;;;4.76;61.71;102720.03;4880934;28;20039;-64
2023/12/18 06:25:55;;;;;;;14.00;5.97;;;;;;;4.81;61.27;102736.53;4882805;28;20044;-68
2023/12/18 06:28:21;;;;;;;13.73;6.13;;;;;;;4.70;61.65;102748.44;4859357;28;20205;-69
2023/12/18 06:30:46;;;;;;;16.33;5.43;;;;;;;4.86;61.23;102746.94;4867369;28;20032;-70
2023/12/18 06:33:12;;;;;;;15.48;6.40;;;;;;;5.00;60.99;102745.44;4880175;28;20142;-68
2023/12/18 06:35:37;;;;;;;17.67;4.93;;;;;;;5.23;60.21;102735.38;4880927;28;20131;-68
2023/12/18 06:38:03;;;;;;;18.92;5.75;;;;;;;4.79;61.77;102732.16;4883408;28;20040;-72
2023/12/18 06:40:28;;;;;;;20.70;7.10;;;;;;;4.76;62.05;102732.97;4896852;28;20139;-72
2023/12/18 06:42:54;;;;;;;20.15;6.28;;;;;;;4.54;62.79;102739.59;4892269;28;20046;-68
2023/12/18 06:45:19;;;;;;;14.65;5.05;;;;;;;4.98;61.15;102733.31;4895783;28;20097;-69
2023/12/18 06:47:45;;;;;;;19.08;6.22;;;;;;;4.66;62.35;102736.28;4881555;28;20036;-72
2023/12/18 06:50:10;;;;;;;19.73;6.20;;;;;;;4.64;62.04;102738.00;4881195;28;20075;-70
2023/12/18 06:52:37;;;;;;;15.70;5.95;;;;;;;4.94;61.54;102728.94;4878412;28;20553;-72
2023/12/18 06:55:02;;;;;;;22.23;6.00;;;;;;;4.71;62.04;102721.69;4878631;28;20040;-71
2023/12/18 06:57:28;;;;;;;14.95;7.07;;;;;;;4.70;62.19;102722.53;4883444;28;20058;-72
2023/12/18 06:59:53;;;;;;;15.45;6.93;;;;;;;4.73;61.82;102729.47;4874506;28;20151;-66
2023/12/18 07:02:19;;;;;;;17.75;6.70;;;;;;;5.03;61.09;102734.22;4899337;28;20044;-70
2023/12/18 07:04:44;;;;;;;12.07;6.22;;;;;;;4.78;62.01;102731.28;4891546;28;20368;-69
2023/12/18 07:07:10;;;;;;;19.52;5.97;;;;;;;5.34;60.41;102721.66;4881052;28;20452;-69
2023/12/18 07:09:35;;;;;;;14.85;6.65;;;;;;;5.46;60.07;102721.81;4862866;28;20051;-69
2023/12/18 07:12:02;;;;;;;15.27;7.68;;;;;;;5.06;61.11;102731.69;4884538;28;20037;-68
2023/12/18 07:14:27;;;;;;;16.80;6.25;;;;;;;5.06;60.82;102734.28;4884339;28;20056;-68
2023/12/18 07:16:53;;;;;;;16.73;6.88;;;;;;;4.86;61.62;102727.94;4874280;28;20114;-69
2023/12/18 07:19:19;;;;;;;18.85;7.68;;;;;;;4.95;61.10;102730.69;4888791;28;20044;-69
2023/12/18 07:21:44;;;;;;;19.08;6.95;;;;;;;4.93;61.64;102740.16;4876610;28;20036;-68
2023/12/18 07:24:10;;;;;;;15.13;7.10;;;;;;;4.64;62.14;102743.16;4858197;28;20310;-68
2023/12/18 07:26:35;;;;;;;21.15;7.05;;;;;;;4.78;61.99;102741.63;4880955;28;20041;-68
2023/12/18 07:29:01;;;;;;;17.30;6.65;;;;;;;4.81;61.89;102740.81;4878213;28;20078;-68
2023/12/18 07:31:26;;;;;;;19.80;7.28;;;;;;;4.78;61.41;102744.22;4888773;28;20078;-69
2023/12/18 07:33:52;;;;;;;16.98;7.35;;;;;;;4.75;62.30;102741.59;4860703;28;21059;-67
2023/12/18 07:36:17;;;;;;;14.13;8.00;;;;;;;4.76;62.33;102740.75;4859099;28;20024;-72
2023/12/18 07:38:45;;;;;;;14.82;6.55;;;;;;;5.14;60.83;102740.41;4875775;28;20772;-72
2023/12/18 07:41:12;;;;;;;12.85;7.35;;;;;;;5.17;60.48;102750.84;4881316;28;20036;-72
2023/12/18 07:43:37;;;;;;;16.35;7.85;;;;;;;4.57;62.25;102757.75;4877204;28;20628;-72
2023/12/18 07:46:03;;;;;;;21.42;8.07;;;;;;;5.05;61.29;102743.75;4880405;28;20029;-72
2023/12/18 07:48:32;;;;;;;12.82;6.93;;;;;;;4.53;62.57;102745.59;4879952;28;20083;-72
2023/12/18 07:50:57;;;;;;;13.90;6.65;;;;;;;4.96;61.68;102746.22;4881137;28;20049;-72
2023/12/18 07:53:23;;;;;;;27.13;8.48;;;;;;;5.05;61.20;102741.16;4881703;28;20036;-72
2023/12/18 07:55:48;;;;;;;24.75;7.78;;;;;;;5.05;61.10;102745.50;4893907;28;20468;-71
2023/12/18 07:58:14;;;;;;;16.75;6.97;;;;;;;5.04;61.49;102743.75;4947244;28;20059;-71
2023/12/18 08:00:39;;;;;;;24.00;7.38;;;;;;;5.38;60.59;102755.41;4874596;28;20463;-68
2023/12/18 08:03:05;;;;;;;26.63;7.70;;;;;;;5.45;60.17;102752.03;4880967;28;20028;-69
2023/12/18 08:05:31;;;;;;;19.75;8.45;;;;;;;5.00;61.43;102752.34;4880957;28;20047;-71
2023/12/18 08:07:56;;;;;;;20.92;8.23;;;;;;;4.98;61.55;102749.72;4873165;28;20307;-69
2023/12/18 08:10:22;;;;;;;22.50;7.82;;;;;;;5.28;61.11;102744.91;4885974;28;20091;-70
2023/12/18 08:12:48;;;;;;;25.17;7.15;;;;;;;4.38;63.27;102753.13;4883432;28;20446;-70
2023/12/18 08:15:14;;;;;;;18.98;7.63;;;;;;;4.87;62.09;102751.25;4878388;28;20135;-71
2023/12/18 08:17:39;;;;;;;18.25;8.05;;;;;;;4.95;61.69;102741.06;4876911;28;20031;-71
2023/12/18 08:20:09;;;;;;;22.60;8.90;;;;;;;4.86;61.41;102740.91;4878511;28;20067;-70
2023/12/18 08:22:34;;;;;;;13.73;6.93;;;;;;;5.18;60.90;102741.34;4962565;28;20090;-71
2023/12/18 08:25:04;;;;;;;20.30;7.57;;;;;;;5.31;61.04;102739.78;4885561;28;20052;-71
2023/12/18 08:27:32;;;;;;;16.20;6.35;;;;;;;4.84;61.82;102725.31;4881343;28;20060;-71
2023/12/18 08:29:58;;;;;;;25.02;7.30;;;;;;;5.07;61.78;102733.41;4881582;28;20108;-74
2023/12/18 08:32:23;;;;;;;14.55;7.57;;;;;;;4.87;62.19;102729.66;4895441;28;21383;-74
2023/12/18 08:34:50;;;;;;;22.73;8.52;;;;;;;5.07;61.78;102717.88;4874794;28;20040;-70
2023/12/18 08:37:16;;;;;;;19.25;7.65;;;;;;;5.27;60.78;102714.66;4874815;28;21285;-72
2023/12/18 08:39:41;;;;;;;24.27;8.48;;;;;;;5.16;61.64;102723.16;4887587;28;20047;-70
2023/12/18 08:42:07;;;;;;;17.95;7.05;;;;;;;5.45;60.40;102731.28;4963042;28;20114;-70
2023/12/18 08:44:32;;;;;;;19.42;8.55;;;;;;;5.44;60.49;102739.94;4877564;28;20055;-69
2023/12/18 08:46:58;;;;;;;20.80;7.18;;;;;;;5.28;60.94;102729.34;4876049;28;20640;-67
2023/12/18 08:49:24;;;;;;;22.45;8.13;;;;;;;5.18;61.56;102734.44;4893626;28;20060;-69
2023/12/18 08:51:49;;;;;;;23.08;8.80;;;;;;;5.18;61.13;102741.34;4877138;28;20119;-67
2023/12/18 08:54:14;;;;;;;39.92;10.18;;;;;;;5.12;61.31;102741.25;4879720;28;20523;-67
2023/12/18 08:56:40;;;;;;;22.90;8.52;;;;;;;4.64;62.50;102730.22;4876318;28;20239;-67
2023/12/18 08:59:06;;;;;;;17.75;7.57;;;;;;;5.20;61.38;102727.53;4875720;28;20068;-67
2023/12/18 09:01:36;;;;;;;28.98;8.30;;;;;;;5.08;61.32;102730.00;4881359;28;20068;-67
2023/12/18 09:04:02;;;;;;;19.05;7.25;;;;;;;5.19;61.65;102718.03;4873473;28;20048;-67
2023/12/18 09:06:28;;;;;;;18.92;9.05;;;;;;;5.04;61.86;102713.53;4878644;28;20035;-68
2023/12/18 09:08:53;;;;;;;25.60;9.32;;;;;;;5.39;60.92;102722.56;4889813;28;20064;-65
2023/12/18 09:11:20;;;;;;;28.92;9.27;;;;;;;5.37;60.60;102716.50;4879429;28;20064;-66
2023/12/18 09:13:46;;;;;;;32.38;9.38;;;;;;;5.10;61.72;102706.66;4873653;28;20404;-66
2023/12/18 09:16:12;;;;;;;18.52;7.72;;;;;;;5.05;61.77;102709.19;4878003;28;20458;-65
2023/12/18 09:18:37;;;;;;;20.67;8.35;;;;;;;5.12;61.85;102700.66;4893161;28;20194;-66
2023/12/18 09:21:03;;;;;;;18.25;7.18;;;;;;;5.13;61.34;102710.19;4873995;28;20555;-67
2023/12/18 09:23:29;;;;;;;24.42;10.38;;;;;;;4.80;62.52;102693.31;4892836;28;20067;-69
2023/12/18 09:25:56;;;;;;;23.52;9.27;;;;;;;5.00;62.25;102703.09;4874426;28;20094;-66
2023/12/18 09:28:22;;;;;;;20.50;8.00;;;;;;;4.83;62.54;102706.31;4873432;28;20552;-66
2023/12/18 09:30:47;;;;;;;27.63;8.43;;;;;;;5.35;61.04;102702.66;4873695;28;20419;-69
2023/12/18 09:33:13;;;;;;;38.55;10.57;;;;;;;5.08;62.14;102698.91;4879229;28;20048;-66
2023/12/18 09:35:39;;;;;;;29.08;8.82;;;;;;;5.53;60.62;102707.19;4876222;28;20044;-68
2023/12/18 09:38:05;;;;;;;32.35;9.90;;;;;;;5.05;62.08;102707.47;4868638;28;20350;-67
2023/12/18 09:40:30;;;;;;;29.83;10.32;;;;;;;5.09;62.18;102708.41;4875940;28;20036;-69
2023/12/18 09:42:56;;;;;;;25.48;9.02;;;;;;;5.03;62.40;102711.78;4867771;28;20100;-67
2023/12/18 09:45:23;;;;;;;37.88;10.40;;;;;;;5.35;61.33;102713.03;4888793;28;20048;-65
2023/12/18 09:47:58;;;;;;;25.05;10.27;;;;;;;5.45;60.86;102720.03;4884206;28;20419;-65
2023/12/18 09:50:23;;;;;;;29.88;9.85;;;;;;;5.92;59.63;102717.06;4874217;28;20139;-64
2023/12/18 09:53:00;;;;;;;28.35;9.43;;;;;;;5.52;60.78;102711.47;4871418;28;20402;-66
2023/12/18 09:55:26;;;;;;;25.17;9.98;;;;;;;5.42;61.35;102709.66;4873515;28;20042;-64
2023/12/18 09:57:56;;;;;;;22.40;8.43;;;;;;;5.56;60.50;102705.47;4885593;28;20042;-65
2023/12/18 10:00:22;;;;;;;26.33;9.43;;;;;;;5.40;61.21;102700.97;4878484;28;20044;-67
2023/12/18 10:02:48;;;;;;;31.02;9.60;;;;;;;5.32;61.33;102707.78;4871542;28;20041;-67
2023/12/18 10:05:13;;;;;;;27.30;10.38;;;;;;;5.22;61.42;102699.91;4873557;28;20075;-67
2023/12/18 10:07:39;;;;;;;25.38;9.05;;;;;;;4.79;62.76;102701.94;4876783;28;20187;-65
2023/12/18 10:10:05;;;;;;;33.67;10.52;;;;;;;5.58;60.99;102690.78;4871744;28;20506;-69
2023/12/18 10:12:32;;;;;;;26.23;9.30;;;;;;;4.96;62.46;102693.53;4875592;28;20044;-68
2023/12/18 10:14:58;;;;;;;29.73;9.50;;;;;;;4.76;62.71;102682.88;4887110;28;20454;-67
2023/12/18 10:17:23;;;;;;;28.48;10.40;;;;;;;5.39;61.08;102675.88;4878170;28;20044;-68
2023/12/18 10:19:49;;;;;;;31.67;10.82;;;;;;;4.84;62.67;102668.31;4872613;28;20101;-67
2023/12/18 10:22:16;;;;;;;27.83;9.73;;;;;;;5.24;62.39;102674.00;4878411;28;20100;-66
2023/12/18 10:24:43;;;;;;;29.48;9.68;;;;;;;5.12;62.54;102669.53;4880819;28;20441;-66
2023/12/18 10:27:11;;;;;;;25.30;9.93;;;;;;;5.23;61.56;102670.56;4874250;28;20366;-67
2023/12/18 10:29:36;;;;;;;25.10;11.18;;;;;;;5.12;62.22;102669.53;4878863;28;20121;-66
2023/12/18 10:32:02;;;;;;;21.77;9.70;;;;;;;4.89;63.14;102656.31;4873841;28;20068;-66
2023/12/18 10:34:28;;;;;;;22.95;11.68;;;;;;;5.17;62.16;102649.75;4884506;28;20071;-66
2023/12/18 10:36:55;;;;;;;35.47;11.07;;;;;;;4.82;62.37;102657.94;4873474;28;20039;-67
2023/12/18 10:39:29;;;;;;;22.17;9.93;;;;;;;5.03;62.46;102651.28;4891378;28;20059;-65
2023/12/18 10:41:59;;;;;;;28.35;11.95;;;;;;;5.01;62.21;102640.03;4874285;28;20110;-66
2023/12/18 10:44:25;;;;;;;27.33;10.75;;;;;;;5.21;61.85;102627.31;4875705;28;20044;-66
2023/12/18 10:46:53;;;;;;;28.40;11.30;;;;;;;5.13;61.98;102619.47;4867956;28;20044;-65
2023/12/18 10:49:20;;;;;;;22.85;10.70;;;;;;;5.08;61.70;102621.13;4876073;28;20522;-67
2023/12/18 10:51:45;;;;;;;33.33;12.75;;;;;;;4.83;62.59;102609.56;4877838;28;20091;-67
2023/12/18 10:54:12;;;;;;;37.60;13.13;;;;;;;4.68;63.04;102615.44;4883142;28;20207;-66
2023/12/18 10:56:41;;;;;;;22.48;11.38;;;;;;;4.67;63.04;102618.88;4884869;28;20399;-66
2023/12/18 10:59:07;;;;;;;24.25;12.30;;;;;;;4.91;62.21;102620.06;4893754;28;20787;-66
2023/12/18 11:01:34;;;;;;;33.15;12.10;;;;;;;4.49;63.24;102631.59;4883265;28;21131;-67
2023/12/18 11:04:01;;;;;;;32.80;10.85;;;;;;;4.45;63.89;102627.22;4875742;28;20063;-67
2023/12/18 11:06:28;;;;;;;36.25;12.20;;;;;;;4.90;62.62;102626.97;4876805;28;20427;-67
2023/12/18 11:08:54;;;;;;;33.10;13.48;;;;;;;5.36;61.43;102621.41;4876661;28;20056;-67
2023/12/18 11:11:21;;;;;;;25.52;11.10;;;;;;;5.24;61.75;102623.03;4880387;28;20032;-65
2023/12/18 11:14:16;;;;;;;31.17;11.75;;;;;;;4.81;63.02;102614.75;4885789;28;20040;-66
2023/12/18 11:17:00;;;;;;;22.00;11.95;;;;;;;4.69;62.82;102601.63;4882521;28;20159;-68
2023/12/18 11:19:55;;;;;;;29.58;12.82;;;;;;;4.81;62.84;102604.38;4877614;28;20048;-67